CYPE

Peace River Airport

Peace River, Alberta, Canada
METAR CYPE 212100Z 09004KT 320V120 15SM FEW050CB BKN250 28/14 A2982 RMK CB1CI7 CB TR CB NW SLP098 DENSITY ALT 3900FT
Observed Flight Rules
Jun-21 @ 21:00 UTC (an hour ago) Visual Flight Rules
Wind Visibility Clouds
90° at 4 knots 15 miles
  • Few at 5,000' AGL
  • Broken at 25,000' AGL
Temperatures Readings
Current 28°C / 82°F
Dewpoint 14°C / 57°F
Humidity 42%
Altimeter 29.82" Hg
Pressure 1009.8 hPa
Elevation 571
METAR CYPE 212100Z 09004KT 320V120 15SM FEW050CB BKN250 28/14 A2982 RMK CB1CI7 CB TR CB NW SLP098 DENSITY ALT 3900FT
Observed Flight Rules
Jun-21 @ 21:00 UTC
(an hour ago)
VFR
Wind Visibility
90° at 4 knots 15 miles
Clouds
  • Few at 5,000' AGL
  • Broken at 25,000' AGL
Temperature Dewpoint
28°C / 82°F 14°C / 57°F
Humidity Altimeter Pressure
42% 29.82" Hg 1009.8 hPa